Time;durP1;ratioP1;P1;durP2;ratioP2;P2;SDS_P1;SDS_P2;PMS_P1;PMS_P2;Temp;Humidity;BMP_temperature;BMP_pressure;BME280_temperature;BME280_humidity;BME280_pressure;Samples;Min_cycle;Max_cycle;Signal;HPM_P1;HPM_P2
2023/02/01 00:00:34;;;;;;;6.05;4.75;;;;;6.50;99112.00;;;;4919337;29;20050;-63
2023/02/01 00:03:01;;;;;;;5.78;4.13;;;;;6.50;99106.00;;;;4918852;29;20085;-64
2023/02/01 00:05:27;;;;;;;8.57;4.75;;;;;6.50;99094.00;;;;4934881;29;20047;-64
2023/02/01 00:07:54;;;;;;;8.82;3.92;;;;;6.40;99085.00;;;;4918929;29;20058;-64
2023/02/01 00:10:20;;;;;;;7.07;4.50;;;;;6.40;99074.00;;;;4935793;29;20051;-64
2023/02/01 00:12:47;;;;;;;5.18;4.05;;;;;6.50;99063.00;;;;4935598;29;20456;-64
2023/02/01 00:15:14;;;;;;;5.25;4.18;;;;;6.50;99056.00;;;;4935311;29;20047;-62
2023/02/01 00:17:40;;;;;;;7.75;4.35;;;;;6.40;99056.00;;;;4936144;29;20054;-64
2023/02/01 00:20:08;;;;;;;5.72;3.83;;;;;6.40;99041.00;;;;4935857;29;20425;-64
2023/02/01 00:22:34;;;;;;;5.50;3.92;;;;;6.40;99048.00;;;;4935631;29;20047;-64
2023/02/01 00:25:01;;;;;;;5.75;4.03;;;;;6.40;99043.00;;;;4935262;29;20416;-64
2023/02/01 00:27:27;;;;;;;7.25;4.20;;;;;6.40;99051.00;;;;4935834;29;20052;-63
2023/02/01 00:29:55;;;;;;;6.60;3.53;;;;;6.40;99056.00;;;;4935746;29;20291;-64
2023/02/01 00:32:22;;;;;;;5.40;4.45;;;;;6.40;99049.00;;;;4935989;29;20047;-64
2023/02/01 00:34:48;;;;;;;11.68;4.30;;;;;6.40;99035.00;;;;4917866;29;20051;-62
2023/02/01 00:37:15;;;;;;;5.28;3.92;;;;;6.40;99027.00;;;;4935622;29;20043;-64
2023/02/01 00:39:41;;;;;;;8.57;4.20;;;;;6.40;99035.00;;;;4918184;29;20421;-64
2023/02/01 00:42:08;;;;;;;7.78;4.22;;;;;6.40;99037.00;;;;4935243;29;20092;-64
2023/02/01 00:44:35;;;;;;;4.40;3.90;;;;;6.50;99040.00;;;;4934907;29;20054;-63
2023/02/01 00:47:02;;;;;;;4.20;3.67;;;;;6.50;99036.00;;;;4935689;29;20493;-62
2023/02/01 00:49:28;;;;;;;5.65;4.18;;;;;6.50;99048.00;;;;4935300;29;20059;-62
2023/02/01 00:51:55;;;;;;;5.22;3.88;;;;;6.50;99040.00;;;;4935236;29;20123;-63
2023/02/01 00:54:22;;;;;;;7.05;4.40;;;;;6.50;99039.00;;;;4934823;29;20048;-63
2023/02/01 00:56:49;;;;;;;7.57;4.40;;;;;6.50;99026.00;;;;4935465;29;20071;-63
2023/02/01 00:59:17;;;;;;;5.90;4.45;;;;;6.40;99033.00;;;;4918539;29;20047;-61
2023/02/01 01:01:44;;;;;;;5.68;4.45;;;;;6.50;99032.00;;;;4935421;29;20511;-62
2023/02/01 01:04:10;;;;;;;6.25;4.13;;;;;6.50;99028.00;;;;4934607;29;20040;-62
2023/02/01 01:06:37;;;;;;;8.02;4.70;;;;;6.40;99035.00;;;;4918128;29;20147;-62
2023/02/01 01:09:06;;;;;;;8.10;4.75;;;;;6.40;99039.00;;;;4935280;29;20436;-63
2023/02/01 01:11:36;;;;;;;7.07;4.57;;;;;6.40;99027.00;;;;4935190;29;20581;-62
2023/02/01 01:14:07;;;;;;;6.78;4.28;;;;;6.40;99031.00;;;;4918824;29;20115;-62
2023/02/01 01:16:34;;;;;;;7.50;4.85;;;;;6.40;99033.00;;;;4920165;29;20047;-63
2023/02/01 01:19:01;;;;;;;6.38;4.85;;;;;6.40;99029.00;;;;4919662;29;20062;-62
2023/02/01 01:21:29;;;;;;;6.07;4.68;;;;;6.40;99030.00;;;;4935517;29;20048;-63
2023/02/01 01:23:56;;;;;;;11.07;5.45;;;;;6.40;99018.00;;;;4935218;29;20096;-62
2023/02/01 01:26:25;;;;;;;7.63;4.93;;;;;6.40;99020.00;;;;4917099;29;20051;-62
2023/02/01 01:28:55;;;;;;;8.82;5.57;;;;;6.40;99022.00;;;;4934772;29;20048;-63
2023/02/01 01:31:22;;;;;;;8.45;5.05;;;;;6.40;99050.00;;;;4917662;29;20047;-62
2023/02/01 01:33:51;;;;;;;6.22;4.70;;;;;6.40;99035.00;;;;4934437;29;20481;-63
2023/02/01 01:36:18;;;;;;;4.97;4.43;;;;;6.40;99028.00;;;;4916970;29;20059;-62
2023/02/01 01:38:45;;;;;;;6.78;4.80;;;;;6.30;99029.00;;;;4934840;29;20105;-63
2023/02/01 01:41:19;;;;;;;11.15;6.35;;;;;6.30;99038.00;;;;4917564;29;20512;-61
2023/02/01 01:43:57;;;;;;;7.90;4.72;;;;;6.30;99038.00;;;;4917449;29;20117;-61
2023/02/01 01:46:31;;;;;;;7.10;4.70;;;;;6.40;99033.00;;;;4934113;29;20040;-61
2023/02/01 01:49:04;;;;;;;7.10;4.88;;;;;6.40;99047.00;;;;4917868;29;20094;-61
2023/02/01 01:51:37;;;;;;;7.03;4.78;;;;;6.40;99042.00;;;;4918053;29;20134;-61
2023/02/01 01:54:12;;;;;;;7.57;5.00;;;;;6.40;99038.00;;;;4917450;29;20095;-61
2023/02/01 01:56:40;;;;;;;8.15;5.22;;;;;6.40;99056.00;;;;4934594;29;20051;-61
2023/02/01 01:59:08;;;;;;;10.85;6.57;;;;;6.40;99052.00;;;;4917793;29;20055;-61
2023/02/01 02:01:35;;;;;;;9.80;5.80;;;;;6.40;99047.00;;;;4916963;29;20052;-61
2023/02/01 02:04:02;;;;;;;10.27;5.75;;;;;6.40;99050.00;;;;4917400;29;20054;-61
2023/02/01 02:06:38;;;;;;;9.70;6.03;;;;;6.50;99036.00;;;;4934912;29;20054;-62
2023/02/01 02:09:05;;;;;;;9.10;4.85;;;;;6.50;99027.00;;;;4917572;29;20147;-61
2023/02/01 02:11:32;;;;;;;11.02;5.00;;;;;6.50;99007.00;;;;4917588;29;20127;-61
2023/02/01 02:13:59;;;;;;;6.22;4.40;;;;;6.50;99013.00;;;;4934289;29;20044;-62
2023/02/01 02:17:00;;;;;;;5.88;3.90;;;;;6.50;99018.00;;;;4933727;29;20047;-62
2023/02/01 02:20:04;;;;;;;8.73;4.15;;;;;6.50;99014.00;;;;4934332;29;20054;-62
2023/02/01 02:22:43;;;;;;;6.28;4.68;;;;;6.40;99017.00;;;;4934294;29;20090;-61
2023/02/01 02:25:52;;;;;;;8.52;4.07;;;;;6.40;99021.00;;;;4916492;29;20052;-63
2023/02/01 02:28:51;;;;;;;7.93;4.88;;;;;6.40;99016.00;;;;4918162;29;20511;-62
2023/02/01 02:31:40;;;;;;;7.63;4.72;;;;;6.40;99009.00;;;;4937805;29;20052;-62
2023/02/01 02:34:20;;;;;;;9.27;4.65;;;;;6.50;99003.00;;;;4919934;29;20139;-61
2023/02/01 02:37:05;;;;;;;11.00;5.65;;;;;6.50;98989.00;;;;4937902;29;20043;-62
2023/02/01 02:39:42;;;;;;;9.90;5.53;;;;;6.50;98981.00;;;;4920537;29;20051;-62
2023/02/01 02:48:01;;;;;;;10.07;5.70;;;;;6.50;98972.00;;;;4932174;29;20052;-61
2023/02/01 03:04:40;;;;;;;9.32;4.68;;;;;6.60;98966.00;;;;4919693;29;20114;-63
2023/02/01 03:07:34;;;;;;;5.68;4.40;;;;;6.60;98961.00;;;;4937758;29;20420;-62
2023/02/01 03:10:10;;;;;;;8.02;4.50;;;;;6.60;98951.00;;;;4937392;29;20417;-61
2023/02/01 03:12:56;;;;;;;7.85;4.72;;;;;6.60;98957.00;;;;4920021;29;20153;-63
2023/02/01 03:15:30;;;;;;;5.30;4.40;;;;;6.60;98955.00;;;;4919289;29;20044;-63
2023/02/01 03:17:59;;;;;;;7.55;4.70;;;;;6.60;98963.00;;;;4936672;29;20425;-62
2023/02/01 03:20:27;;;;;;;8.32;4.50;;;;;6.70;98956.00;;;;4919836;29;20135;-62
2023/02/01 03:22:55;;;;;;;4.50;3.85;;;;;6.60;98956.00;;;;4919484;29;20051;-62
2023/02/01 03:25:27;;;;;;;10.15;4.82;;;;;6.70;98957.00;;;;4936418;29;20039;-62
2023/02/01 03:28:01;;;;;;;8.38;4.40;;;;;6.70;98953.00;;;;4919624;29;20085;-63
2023/02/01 03:30:34;;;;;;;8.93;4.85;;;;;6.70;98947.00;;;;4937980;29;20044;-63
2023/02/01 03:33:07;;;;;;;7.50;5.10;;;;;6.70;98950.00;;;;4919590;29;20047;-63
2023/02/01 03:35:44;;;;;;;10.63;5.07;;;;;6.70;98959.00;;;;4936088;29;20082;-62
2023/02/01 03:38:17;;;;;;;9.73;5.22;;;;;6.70;98977.00;;;;4919419;29;20060;-63
2023/02/01 03:40:48;;;;;;;8.52;4.72;;;;;6.70;98974.00;;;;4935569;29;20107;-63
2023/02/01 03:43:18;;;;;;;8.93;4.90;;;;;6.80;98976.00;;;;4919233;29;20390;-63
2023/02/01 03:45:50;;;;;;;9.18;4.78;;;;;6.80;98977.00;;;;4935725;29;20056;-63
2023/02/01 03:48:18;;;;;;;9.65;4.82;;;;;6.80;98981.00;;;;4919463;29;20059;-62
2023/02/01 03:50:50;;;;;;;8.80;4.38;;;;;6.70;98983.00;;;;4919316;29;20055;-63
2023/02/01 03:53:20;;;;;;;9.63;4.13;;;;;6.70;98985.00;;;;4919173;29;20122;-62
2023/02/01 03:55:48;;;;;;;6.25;3.95;;;;;6.70;98989.00;;;;4918621;29;20047;-62
2023/02/01 03:58:19;;;;;;;8.25;4.35;;;;;6.70;98992.00;;;;4903638;29;20051;-62
2023/02/01 04:00:51;;;;;;;9.05;4.72;;;;;6.70;98985.00;;;;4919115;29;20054;-63
2023/02/01 04:03:18;;;;;;;7.97;4.65;;;;;6.70;98983.00;;;;4936402;29;20044;-62
2023/02/01 04:05:45;;;;;;;10.30;5.30;;;;;6.70;98983.00;;;;4918904;29;20056;-63
2023/02/01 04:08:11;;;;;;;9.20;5.45;;;;;6.70;98982.00;;;;4919430;29;20182;-62
2023/02/01 04:10:38;;;;;;;9.27;5.32;;;;;6.70;98981.00;;;;4936596;29;20393;-62
2023/02/01 04:13:05;;;;;;;7.95;5.28;;;;;6.80;98991.00;;;;4936555;29;20051;-62
2023/02/01 04:15:32;;;;;;;6.57;4.60;;;;;6.80;98990.00;;;;4936745;29;20048;-62
2023/02/01 04:17:58;;;;;;;6.43;4.47;;;;;6.80;98988.00;;;;4919929;29;20103;-62
2023/02/01 04:20:25;;;;;;;7.07;4.30;;;;;6.80;98992.00;;;;4936378;29;20055;-62
2023/02/01 04:22:51;;;;;;;8.75;4.57;;;;;6.80;98992.00;;;;4936350;29;20052;-61
2023/02/01 04:25:18;;;;;;;9.85;4.82;;;;;6.80;99001.00;;;;4936357;29;20131;-61
2023/02/01 04:27:45;;;;;;;8.85;4.00;;;;;6.80;98996.00;;;;4936567;29;20039;-64
2023/02/01 04:30:13;;;;;;;9.68;3.92;;;;;6.80;98988.00;;;;4936559;29;20051;-60
2023/02/01 04:32:40;;;;;;;4.93;3.70;;;;;6.80;98985.00;;;;4936336;29;20040;-61
2023/02/01 04:35:07;;;;;;;8.18;4.00;;;;;6.80;99001.00;;;;4936093;29;20044;-60
2023/02/01 04:37:34;;;;;;;7.80;3.67;;;;;6.70;98989.00;;;;4919397;29;20051;-63
2023/02/01 04:40:03;;;;;;;7.95;3.60;;;;;6.80;98986.00;;;;4936689;29;20044;-61
2023/02/01 04:42:30;;;;;;;6.65;4.43;;;;;6.80;98987.00;;;;4936874;29;20044;-63
2023/02/01 04:44:56;;;;;;;9.13;4.82;;;;;6.80;98990.00;;;;4936032;29;20130;-61
2023/02/01 04:47:23;;;;;;;6.22;5.40;;;;;6.80;98981.00;;;;4936024;29;20075;-63
2023/02/01 04:49:49;;;;;;;8.15;5.28;;;;;6.80;98985.00;;;;4918960;29;20067;-62
2023/02/01 04:52:16;;;;;;;8.25;4.78;;;;;6.80;99000.00;;;;4935710;29;20040;-62
2023/02/01 04:54:42;;;;;;;8.90;5.40;;;;;6.80;99002.00;;;;4935812;29;20044;-62
2023/02/01 04:57:09;;;;;;;9.43;5.68;;;;;6.70;99008.00;;;;4938303;29;20064;-62
2023/02/01 04:59:35;;;;;;;8.25;5.47;;;;;6.70;99012.00;;;;4939622;29;20051;-63
2023/02/01 05:02:02;;;;;;;7.70;5.10;;;;;6.60;99004.00;;;;4939363;29;20466;-62
2023/02/01 05:04:28;;;;;;;7.85;4.65;;;;;6.60;99010.00;;;;4921120;29;20048;-63
2023/02/01 05:06:55;;;;;;;8.38;4.47;;;;;6.50;99011.00;;;;4939047;29;20474;-63
2023/02/01 05:09:21;;;;;;;6.35;3.40;;;;;6.50;99013.00;;;;4939613;29;20047;-62
2023/02/01 05:14:33;;;;;;;5.57;3.78;;;;;6.40;99004.00;;;;4938578;29;20048;-62
2023/02/01 05:17:00;;;;;;;6.78;4.03;;;;;6.40;98997.00;;;;4938628;29;20040;-62
2023/02/01 05:19:26;;;;;;;8.38;3.83;;;;;6.40;99005.00;;;;4922306;29;20099;-64
2023/02/01 05:21:52;;;;;;;6.38;4.00;;;;;6.40;99006.00;;;;4938382;29;20047;-63
2023/02/01 05:24:19;;;;;;;8.98;5.03;;;;;6.40;98999.00;;;;4936781;29;20131;-62
2023/02/01 05:26:47;;;;;;;7.60;5.38;;;;;6.40;99009.00;;;;4935335;29;20047;-62
2023/02/01 05:29:16;;;;;;;12.27;6.45;;;;;6.40;99006.00;;;;4935225;29;20532;-62
2023/02/01 05:31:45;;;;;;;9.05;5.80;;;;;6.40;99008.00;;;;4935400;29;20119;-61
2023/02/01 05:34:11;;;;;;;9.68;6.13;;;;;6.40;99006.00;;;;4934619;29;20123;-62
2023/02/01 05:36:38;;;;;;;11.55;6.88;;;;;6.50;99014.00;;;;4935178;29;20051;-62
2023/02/01 05:39:04;;;;;;;15.32;6.78;;;;;6.50;99013.00;;;;4935262;29;20044;-63
2023/02/01 05:41:31;;;;;;;11.77;6.85;;;;;6.50;99002.00;;;;4935188;29;20044;-62
2023/02/01 05:43:58;;;;;;;12.38;6.45;;;;;6.50;98994.00;;;;4917782;29;20067;-62
2023/02/01 05:46:24;;;;;;;12.20;6.05;;;;;6.50;98980.00;;;;4934524;29;20060;-62
2023/02/01 05:48:51;;;;;;;10.23;5.80;;;;;6.50;98988.00;;;;4934817;29;20099;-62
2023/02/01 05:51:17;;;;;;;11.93;6.47;;;;;6.50;98990.00;;;;4934830;29;20397;-63
2023/02/01 05:53:44;;;;;;;9.93;6.13;;;;;6.50;98987.00;;;;4934822;29;20048;-61
2023/02/01 05:56:11;;;;;;;15.75;6.00;;;;;6.40;98982.00;;;;4934120;29;20044;-62
2023/02/01 05:58:37;;;;;;;12.73;5.57;;;;;6.40;99003.00;;;;4935198;29;20131;-62
2023/02/01 06:01:04;;;;;;;13.18;5.68;;;;;6.40;99007.00;;;;4934972;29;20047;-63
2023/02/01 06:03:31;;;;;;;9.40;5.57;;;;;6.40;99008.00;;;;4935812;29;20075;-62
2023/02/01 06:05:57;;;;;;;9.02;5.53;;;;;6.50;99019.00;;;;4938263;29;20047;-61
2023/02/01 06:08:25;;;;;;;10.93;4.57;;;;;6.50;99024.00;;;;4938666;29;20473;-62
2023/02/01 06:10:59;;;;;;;11.00;5.50;;;;;6.50;99037.00;;;;4938517;29;20417;-61
2023/02/01 06:13:26;;;;;;;12.98;5.05;;;;;6.40;99029.00;;;;4921761;29;20054;-61
2023/02/01 06:15:52;;;;;;;10.15;4.60;;;;;6.40;99023.00;;;;4938347;29;20047;-63
2023/02/01 06:18:19;;;;;;;7.93;4.60;;;;;6.40;99022.00;;;;4938622;29;20048;-62
2023/02/01 06:20:54;;;;;;;8.80;4.43;;;;;6.40;99027.00;;;;4938632;29;20055;-63
2023/02/01 06:23:23;;;;;;;10.25;4.28;;;;;6.40;99017.00;;;;4938444;29;20129;-61
2023/02/01 06:25:58;;;;;;;8.43;5.10;;;;;6.30;99024.00;;;;4938394;29;20576;-61
2023/02/01 06:28:25;;;;;;;11.68;4.20;;;;;6.30;99021.00;;;;4939483;29;20052;-62
2023/02/01 06:30:51;;;;;;;8.90;4.10;;;;;6.40;99021.00;;;;4938510;29;20055;-62
2023/02/01 06:33:18;;;;;;;13.88;6.28;;;;;6.40;99016.00;;;;4921347;29;20424;-61
2023/02/01 06:35:45;;;;;;;8.43;4.57;;;;;6.40;99020.00;;;;4938885;29;20048;-62
2023/02/01 06:38:11;;;;;;;16.48;6.43;;;;;6.40;99007.00;;;;4940334;29;20055;-61
2023/02/01 06:40:39;;;;;;;11.85;5.85;;;;;6.40;99012.00;;;;4941335;29;20047;-63
2023/02/01 06:43:06;;;;;;;9.80;5.50;;;;;6.40;99014.00;;;;4938959;29;20047;-62
2023/02/01 06:45:32;;;;;;;9.55;5.53;;;;;6.40;99006.00;;;;4937892;29;20044;-63
2023/02/01 06:48:00;;;;;;;12.82;5.63;;;;;6.40;99013.00;;;;4938245;29;20564;-63
2023/02/01 06:50:27;;;;;;;10.60;6.47;;;;;6.40;99016.00;;;;4938100;29;20118;-63
2023/02/01 06:52:55;;;;;;;15.20;6.10;;;;;6.50;99028.00;;;;4938225;29;20111;-62
2023/02/01 06:55:21;;;;;;;14.57;7.05;;;;;6.40;99031.00;;;;4937435;29;20039;-63
2023/02/01 06:57:52;;;;;;;16.85;6.30;;;;;6.40;99030.00;;;;4938176;29;20051;-63
2023/02/01 07:00:19;;;;;;;19.80;7.53;;;;;6.40;99030.00;;;;4938254;29;20114;-63
2023/02/01 07:02:46;;;;;;;14.02;6.82;;;;;6.40;99037.00;;;;4938014;29;20521;-63
2023/02/01 07:05:12;;;;;;;17.00;7.90;;;;;6.30;99027.00;;;;4937526;29;20044;-64
2023/02/01 07:07:39;;;;;;;10.32;5.45;;;;;6.20;99028.00;;;;4938400;29;20044;-63
2023/02/01 07:10:05;;;;;;;10.48;5.05;;;;;6.10;99027.00;;;;4938379;29;20051;-62
2023/02/01 07:12:32;;;;;;;9.30;4.60;;;;;6.10;99033.00;;;;4937530;29;20103;-63
2023/02/01 07:14:59;;;;;;;7.88;4.00;;;;;6.00;99028.00;;;;4935731;29;20513;-63
2023/02/01 07:17:25;;;;;;;9.10;4.32;;;;;5.90;99015.00;;;;4937494;29;20055;-63
2023/02/01 07:19:52;;;;;;;11.25;5.28;;;;;6.00;99014.00;;;;4937590;29;20043;-63
2023/02/01 07:22:18;;;;;;;13.82;5.55;;;;;6.00;99012.00;;;;4937323;29;20052;-62
2023/02/01 07:24:45;;;;;;;13.90;5.82;;;;;6.00;99025.00;;;;4936797;29;20413;-63
2023/02/01 07:27:12;;;;;;;14.82;6.60;;;;;6.00;99028.00;;;;4937367;29;20051;-61
2023/02/01 07:29:39;;;;;;;14.00;7.38;;;;;6.10;99026.00;;;;4937458;29;20075;-63
2023/02/01 07:32:05;;;;;;;16.33;7.00;;;;;6.10;99036.00;;;;4937078;29;20048;-62
2023/02/01 07:34:32;;;;;;;17.60;7.55;;;;;6.20;99028.00;;;;4919502;29;20395;-64
2023/02/01 07:36:59;;;;;;;20.00;7.25;;;;;6.20;99032.00;;;;4937297;29;20055;-61
2023/02/01 07:39:28;;;;;;;26.10;7.07;;;;;6.20;99024.00;;;;4937571;29;20390;-62
2023/02/01 07:41:56;;;;;;;17.80;7.25;;;;;6.20;99014.00;;;;4937023;29;20047;-63
2023/02/01 07:44:23;;;;;;;18.40;7.15;;;;;6.30;99020.00;;;;4936323;29;20043;-63
2023/02/01 07:46:50;;;;;;;18.95;6.25;;;;;6.40;99015.00;;;;4919850;29;20099;-64
2023/02/01 07:49:17;;;;;;;18.10;6.78;;;;;6.40;99020.00;;;;4920147;29;20054;-61
2023/02/01 07:51:43;;;;;;;18.88;6.53;;;;;6.40;99023.00;;;;4937192;29;20501;-61
2023/02/01 07:54:10;;;;;;;15.07;5.78;;;;;6.40;99035.00;;;;4936494;29;20047;-61
2023/02/01 07:56:36;;;;;;;21.20;7.43;;;;;6.40;99032.00;;;;4920043;29;20044;-60
2023/02/01 07:59:03;;;;;;;16.10;6.30;;;;;6.50;99036.00;;;;4936753;29;20051;-61
2023/02/01 08:01:30;;;;;;;15.50;6.53;;;;;6.40;99036.00;;;;4936629;29;20050;-61
2023/02/01 08:03:59;;;;;;;14.43;6.43;;;;;6.50;99039.00;;;;4936668;29;20493;-61
2023/02/01 08:06:27;;;;;;;18.10;5.82;;;;;6.40;99039.00;;;;4936770;29;20413;-60
2023/02/01 08:08:54;;;;;;;19.15;6.72;;;;;6.40;99052.00;;;;4937359;29;20048;-61
2023/02/01 08:11:25;;;;;;;21.25;7.05;;;;;6.40;99054.00;;;;4919793;29;20588;-61
2023/02/01 08:13:52;;;;;;;14.05;5.57;;;;;6.50;99062.00;;;;4936474;29;20486;-63
2023/02/01 08:16:20;;;;;;;17.02;5.30;;;;;6.50;99068.00;;;;4919067;29;20043;-63
2023/02/01 08:18:47;;;;;;;19.58;6.20;;;;;6.60;99060.00;;;;4919510;29;20055;-62
2023/02/01 08:21:21;;;;;;;17.45;5.50;;;;;6.60;99067.00;;;;4936319;29;20575;-60
2023/02/01 08:23:48;;;;;;;20.95;6.55;;;;;6.70;99075.00;;;;4936192;29;20724;-61
2023/02/01 08:26:22;;;;;;;15.20;5.05;;;;;6.80;99083.00;;;;4918146;29;20095;-62
2023/02/01 08:28:57;;;;;;;13.43;5.35;;;;;6.80;99078.00;;;;4919293;29;20154;-63
2023/02/01 08:31:25;;;;;;;17.52;5.38;;;;;6.90;99090.00;;;;4936199;29;20128;-61
2023/02/01 08:33:57;;;;;;;15.10;5.07;;;;;7.00;99074.00;;;;4935961;29;20064;-63
2023/02/01 08:36:26;;;;;;;13.93;4.97;;;;;7.20;99072.00;;;;4936045;29;20074;-63
2023/02/01 08:38:52;;;;;;;17.45;5.30;;;;;7.20;99073.00;;;;4935899;29;20075;-62
2023/02/01 08:41:22;;;;;;;11.00;4.88;;;;;7.20;99074.00;;;;4936120;29;20097;-62
2023/02/01 08:43:49;;;;;;;16.98;5.10;;;;;7.30;99079.00;;;;4919133;29;20074;-62
2023/02/01 08:46:16;;;;;;;12.40;5.05;;;;;7.30;99082.00;;;;4935431;29;20047;-63
2023/02/01 08:48:45;;;;;;;16.08;5.63;;;;;7.40;99078.00;;;;4935862;29;20067;-62
2023/02/01 08:51:13;;;;;;;17.20;5.40;;;;;7.40;99076.00;;;;4918908;29;20473;-62
2023/02/01 08:53:41;;;;;;;15.77;5.00;;;;;7.40;99077.00;;;;4935581;29;20102;-63
2023/02/01 08:56:09;;;;;;;15.63;5.32;;;;;7.50;99069.00;;;;4935176;29;20051;-62
2023/02/01 08:58:36;;;;;;;19.75;6.22;;;;;7.50;99080.00;;;;4918759;29;20081;-60
2023/02/01 09:01:08;;;;;;;16.55;4.18;;;;;7.50;99066.00;;;;4918692;29;20154;-62
2023/02/01 09:03:35;;;;;;;12.52;4.53;;;;;7.50;99076.00;;;;4918739;29;20047;-63
2023/02/01 09:06:03;;;;;;;12.82;4.53;;;;;7.40;99076.00;;;;4934933;29;20090;-63
2023/02/01 09:08:30;;;;;;;21.25;4.45;;;;;7.40;99078.00;;;;4935609;29;20078;-63
2023/02/01 09:11:02;;;;;;;15.38;4.32;;;;;7.40;99070.00;;;;4935471;29;20070;-63
2023/02/01 09:13:29;;;;;;;25.30;4.90;;;;;7.40;99080.00;;;;4938742;29;20172;-61
2023/02/01 09:15:55;;;;;;;20.40;6.03;;;;;7.40;99080.00;;;;4936542;29;20581;-62
2023/02/01 09:18:22;;;;;;;13.93;5.28;;;;;7.40;99083.00;;;;4935720;29;20067;-62
2023/02/01 09:20:49;;;;;;;17.05;5.03;;;;;7.50;99094.00;;;;4938255;29;20107;-62
2023/02/01 09:23:15;;;;;;;14.02;5.38;;;;;7.40;99093.00;;;;4937330;29;20056;-61
2023/02/01 09:25:42;;;;;;;25.23;7.28;;;;;7.50;99092.00;;;;4917982;29;20039;-61
2023/02/01 09:28:09;;;;;;;20.08;6.55;;;;;7.50;99073.00;;;;4935647;29;20532;-61
2023/02/01 09:30:36;;;;;;;16.80;5.97;;;;;7.40;99095.00;;;;4935554;29;20051;-62
2023/02/01 09:33:04;;;;;;;16.58;4.38;;;;;7.40;99093.00;;;;4935455;29;20058;-62
2023/02/01 09:35:30;;;;;;;15.93;4.22;;;;;7.40;99102.00;;;;4934800;29;20040;-63
2023/02/01 09:37:57;;;;;;;16.08;4.97;;;;;7.30;99119.00;;;;4935334;29;20071;-63
2023/02/01 09:40:23;;;;;;;14.48;4.20;;;;;7.20;99120.00;;;;4936482;29;20051;-66
2023/02/01 09:43:19;;;;;;;14.63;3.88;;;;;7.20;99139.00;;;;4940023;29;20074;-63
2023/02/01 09:46:21;;;;;;;19.50;4.55;;;;;7.10;99152.00;;;;4919990;29;20122;-62
2023/02/01 09:48:51;;;;;;;14.30;3.72;;;;;7.10;99137.00;;;;4933935;29;20070;-61
2023/02/01 09:51:23;;;;;;;13.55;4.88;;;;;7.00;99146.00;;;;4935068;29;20053;-62
2023/02/01 09:54:14;;;;;;;17.20;4.22;;;;;7.10;99150.00;;;;4935670;29;20059;-63
2023/02/01 09:56:46;;;;;;;15.48;4.45;;;;;7.00;99147.00;;;;4936949;29;20052;-62
2023/02/01 09:59:28;;;;;;;17.02;4.15;;;;;7.10;99144.00;;;;4937051;29;20069;-63
2023/02/01 10:01:55;;;;;;;14.65;5.03;;;;;7.10;99157.00;;;;4920716;29;20296;-63
2023/02/01 10:04:22;;;;;;;20.67;4.25;;;;;7.10;99147.00;;;;4935165;29;20047;-63
2023/02/01 10:07:04;;;;;;;17.77;4.13;;;;;7.20;99143.00;;;;4936673;29;20054;-62
2023/02/01 10:09:38;;;;;;;15.02;4.05;;;;;7.30;99144.00;;;;4936437;29;20099;-62
2023/02/01 10:12:24;;;;;;;16.38;4.50;;;;;7.30;99159.00;;;;4935352;29;20048;-62
2023/02/01 10:15:06;;;;;;;14.88;4.53;;;;;7.30;99162.00;;;;4934622;29;20059;-62
2023/02/01 10:17:54;;;;;;;22.35;5.47;;;;;7.30;99156.00;;;;4935160;29;20056;-62
2023/02/01 10:20:28;;;;;;;23.35;5.80;;;;;7.30;99160.00;;;;4935329;29;20416;-63
2023/02/01 10:23:24;;;;;;;19.30;6.30;;;;;7.30;99168.00;;;;4934796;29;20095;-63
2023/02/01 10:26:20;;;;;;;19.65;4.40;;;;;7.30;99162.00;;;;4934329;29;20082;-63
2023/02/01 10:28:50;;;;;;;17.88;5.93;;;;;7.30;99172.00;;;;4935024;29;20052;-62
2023/02/01 10:31:18;;;;;;;16.80;5.22;;;;;7.30;99174.00;;;;4935004;29;20043;-61
2023/02/01 10:33:47;;;;;;;18.35;4.75;;;;;7.20;99166.00;;;;4934790;29;20086;-62
2023/02/01 10:36:40;;;;;;;14.85;4.55;;;;;7.20;99167.00;;;;4918405;29;20048;-63
2023/02/01 10:39:11;;;;;;;18.17;4.22;;;;;7.20;99163.00;;;;4935506;29;20039;-63
2023/02/01 10:41:40;;;;;;;16.65;4.15;;;;;7.20;99162.00;;;;4935289;29;20059;-63
2023/02/01 10:44:13;;;;;;;14.38;4.60;;;;;7.20;99157.00;;;;4934406;29;20044;-63
2023/02/01 10:46:40;;;;;;;13.07;3.72;;;;;7.20;99155.00;;;;4935363;29;20368;-63
2023/02/01 10:49:15;;;;;;;16.50;4.93;;;;;7.20;99144.00;;;;4935995;29;20079;-62
2023/02/01 10:51:53;;;;;;;;;;;;;7.30;99136.00;;;;4939189;29;20052;-63
2023/02/01 10:54:34;;;;;;;13.15;3.58;;;;;7.30;99140.00;;;;4938014;29;19923;-63
2023/02/01 10:57:00;;;;;;;14.90;5.47;;;;;7.20;99139.00;;;;4937978;29;20071;-64
2023/02/01 10:59:28;;;;;;;14.40;3.95;;;;;7.20;99134.00;;;;4937987;29;20449;-63
2023/02/01 11:02:13;;;;;;;21.77;5.38;;;;;7.30;99127.00;;;;4937730;29;20051;-63
2023/02/01 11:04:39;;;;;;;14.27;3.72;;;;;7.30;99122.00;;;;4937049;29;20075;-62
2023/02/01 11:07:07;;;;;;;16.13;3.72;;;;;7.30;99116.00;;;;4937756;29;20047;-62
2023/02/01 11:09:40;;;;;;;15.05;4.50;;;;;7.30;99110.00;;;;4937949;29;20073;-63
2023/02/01 11:12:24;;;;;;;14.27;3.78;;;;;7.30;99108.00;;;;4937952;29;20445;-61
2023/02/01 11:14:56;;;;;;;;;;;;;7.40;99113.00;;;;4937683;29;20044;-62
2023/02/01 11:17:35;;;;;;;20.73;4.32;;;;;7.30;99110.00;;;;4937751;29;19929;-61
2023/02/01 11:20:14;;;;;;;18.75;4.47;;;;;7.30;99102.00;;;;4937539;29;20457;-61
2023/02/01 11:22:47;;;;;;;11.40;3.88;;;;;7.30;99104.00;;;;4937380;29;20413;-62
2023/02/01 11:25:17;;;;;;;16.20;4.43;;;;;7.30;99104.00;;;;4937351;29;20059;-64
2023/02/01 11:27:44;;;;;;;17.48;4.35;;;;;7.40;99103.00;;;;4937821;29;20444;-62
2023/02/01 11:30:54;;;;;;;15.50;4.57;;;;;7.60;99106.00;;;;4920493;29;20067;-61
2023/02/01 11:33:29;;;;;;;18.88;5.22;;;;;7.50;99109.00;;;;4899977;29;20595;-62
2023/02/01 11:35:58;;;;;;;12.38;4.05;;;;;7.50;99106.00;;;;4936685;29;20099;-63
2023/02/01 11:38:30;;;;;;;9.85;3.65;;;;;7.60;99118.00;;;;4937707;29;20043;-63
2023/02/01 11:41:20;;;;;;;19.65;4.03;;;;;7.60;99108.00;;;;4937323;29;20127;-62
2023/02/01 11:43:59;;;;;;;16.38;4.40;;;;;7.60;99112.00;;;;4937217;29;20418;-62
2023/02/01 11:46:32;;;;;;;17.90;4.35;;;;;7.60;99105.00;;;;4936543;29;20051;-60
2023/02/01 11:49:24;;;;;;;12.70;3.75;;;;;7.50;99102.00;;;;4937320;29;20062;-64
2023/02/01 11:52:14;;;;;;;15.98;4.25;;;;;7.50;99101.00;;;;4937139;29;20044;-63
2023/02/01 11:54:52;;;;;;;21.88;7.13;;;;;7.50;99101.00;;;;4936519;29;20504;-65
2023/02/01 11:57:28;;;;;;;16.88;5.05;;;;;7.40;99109.00;;;;4920018;29;20075;-63
2023/02/01 12:00:23;;;;;;;14.35;3.58;;;;;7.40;99093.00;;;;4936856;29;20050;-60
2023/02/01 12:03:03;;;;;;;16.42;4.50;;;;;7.30;99103.00;;;;4936439;29;20485;-64
2023/02/01 12:05:39;;;;;;;12.98;3.67;;;;;7.30;99095.00;;;;4936209;29;20446;-63
2023/02/01 12:08:27;;;;;;;16.48;3.95;;;;;7.30;99097.00;;;;4936882;29;20040;-63
2023/02/01 12:11:29;;;;;;;12.82;3.90;;;;;7.30;99089.00;;;;4936690;29;20060;-63
2023/02/01 12:14:07;;;;;;;14.80;4.13;;;;;7.20;99091.00;;;;4934143;29;20087;-61
2023/02/01 12:16:51;;;;;;;10.43;3.67;;;;;7.20;99087.00;;;;4936940;29;20043;-62
2023/02/01 12:19:29;;;;;;;13.93;3.78;;;;;7.30;99079.00;;;;4936548;29;20058;-63
2023/02/01 12:22:18;;;;;;;15.68;4.50;;;;;7.40;99092.00;;;;4936428;29;20555;-63
2023/02/01 12:25:01;;;;;;;18.00;4.22;;;;;7.50;99086.00;;;;4919108;29;20465;-63
2023/02/01 12:28:00;;;;;;;14.13;3.63;;;;;7.50;99096.00;;;;4919573;29;20089;-62
2023/02/01 12:30:45;;;;;;;14.73;3.70;;;;;7.50;99085.00;;;;4919713;29;20394;-64
2023/02/01 12:33:45;;;;;;;13.38;3.38;;;;;7.50;99074.00;;;;4936378;29;20052;-63
2023/02/01 12:36:48;;;;;;;15.43;3.53;;;;;7.50;99078.00;;;;4936018;29;20508;-62
2023/02/01 12:39:38;;;;;;;14.43;3.63;;;;;7.40;99070.00;;;;4936434;29;20047;-63
2023/02/01 12:42:31;;;;;;;12.25;3.33;;;;;7.50;99072.00;;;;4936054;29;20561;-63
2023/02/01 12:45:12;;;;;;;13.38;3.25;;;;;7.40;99072.00;;;;4935654;29;20047;-63
2023/02/01 12:47:49;;;;;;;13.60;3.10;;;;;7.40;99064.00;;;;4936299;29;20059;-63
2023/02/01 12:50:28;;;;;;;15.07;3.45;;;;;7.50;99055.00;;;;4936049;29;20043;-63
2023/02/01 12:53:06;;;;;;;10.88;2.90;;;;;7.50;99054.00;;;;4935941;29;20441;-63
2023/02/01 12:55:38;;;;;;;11.82;3.00;;;;;7.40;99037.00;;;;4935444;29;20039;-63
2023/02/01 12:58:11;;;;;;;15.18;3.25;;;;;7.40;99050.00;;;;4936412;29;20076;-63
2023/02/01 13:00:43;;;;;;;16.40;4.67;;;;;7.40;99018.00;;;;4936983;29;20051;-63
2023/02/01 13:03:44;;;;;;;14.20;3.60;;;;;7.40;99019.00;;;;4937108;29;20051;-63
2023/02/01 13:06:22;;;;;;;12.50;3.70;;;;;7.50;99010.00;;;;4935648;29;20501;-63